BCS822 EDDP-EBBR
Flight info
| Callsign | BCS822 |
|---|---|
| Flight time | N/A |
| Altitude | 34000 |
| Route | ORTAG5E/08R ORTAG Q230 KUMER DCT WRB DCT ABAMI Z717 NEREL/N0410F240 T855 AGENI/N0377F180 T855 BATTY |
| Aircraft | B77L/H-SDE1E2E3FGHIJ2J3J4J5M1RWXY/LB1D1 |
Departure
| Time | 2026-05-07 18:42 |
|---|---|
| Airport | Leipzig/Halle Airport (EDDP) |
Arrival
| Time | N/A |
|---|---|
| Airport | Brussels Airport (EBBR) |
| Time | Latitude | Longitude | Altitude | Speed | Heading |
|---|---|---|---|---|---|
| 2026-05-07 18:07 | 51.40800 | 12.20013 | 427 ft | 0 kts | 175° |
| 2026-05-07 18:33 | 51.40820 | 12.20011 | 437 ft | 4 kts | 175° |
| 2026-05-07 18:33 | 51.40847 | 12.20007 | 426 ft | 4 kts | 175° |
| 2026-05-07 18:33 | 51.40874 | 12.20003 | 426 ft | 4 kts | 175° |
| 2026-05-07 18:33 | 51.40896 | 12.19998 | 426 ft | 4 kts | 145° |
| 2026-05-07 18:34 | 51.40906 | 12.19968 | 426 ft | 4 kts | 84° |
| 2026-05-07 18:34 | 51.40904 | 12.19940 | 430 ft | 1 kts | 86° |
| 2026-05-07 18:37 | 51.40904 | 12.19942 | 429 ft | 1 kts | 86° |
| 2026-05-07 18:37 | 51.40906 | 12.19989 | 426 ft | 11 kts | 86° |
| 2026-05-07 18:38 | 51.40913 | 12.20140 | 443 ft | 15 kts | 86° |
| 2026-05-07 18:38 | 51.40921 | 12.20306 | 442 ft | 15 kts | 85° |
| 2026-05-07 18:38 | 51.40963 | 12.20442 | 430 ft | 13 kts | 26° |
| 2026-05-07 18:38 | 51.41010 | 12.20467 | 431 ft | 0 kts | 16° |
| 2026-05-07 18:39 | 51.41047 | 12.20485 | 429 ft | 11 kts | 16° |
| 2026-05-07 18:39 | 51.41121 | 12.20520 | 429 ft | 11 kts | 16° |
| 2026-05-07 18:39 | 51.41166 | 12.20607 | 433 ft | 6 kts | 82° |
| 2026-05-07 18:40 | 51.41166 | 12.20609 | 433 ft | 0 kts | 82° |
| 2026-05-07 18:41 | 51.41175 | 12.20732 | 431 ft | 35 kts | 85° |
| 2026-05-07 18:41 | 51.41212 | 12.21536 | 458 ft | 107 kts | 85° |
| 2026-05-07 18:41 | 51.41285 | 12.23060 | 465 ft | 164 kts | 85° |
| 2026-05-07 18:41 | 51.41358 | 12.25018 | 812 ft | 179 kts | 85° |
| 2026-05-07 18:42 | 51.41413 | 12.27038 | 1507 ft | 180 kts | 86° |
| 2026-05-07 18:42 | 51.41503 | 12.28998 | 2319 ft | 180 kts | 83° |
| 2026-05-07 18:42 | 51.41629 | 12.31092 | 2709 ft | 201 kts | 83° |
| 2026-05-07 18:42 | 51.41773 | 12.33477 | 2963 ft | 231 kts | 83° |
| 2026-05-07 18:43 | 51.41931 | 12.36168 | 3476 ft | 249 kts | 83° |
| 2026-05-07 18:43 | 51.42243 | 12.38924 | 4170 ft | 255 kts | 66° |
| 2026-05-07 18:43 | 51.43299 | 12.41212 | 5020 ft | 258 kts | 38° |
| 2026-05-07 18:43 | 51.44912 | 12.42448 | 5874 ft | 262 kts | 12° |
| 2026-05-07 18:44 | 51.46756 | 12.42464 | 6672 ft | 267 kts | 348° |
| 2026-05-07 18:44 | 51.48541 | 12.41680 | 7332 ft | 273 kts | 345° |
| 2026-05-07 18:44 | 51.50392 | 12.40868 | 8196 ft | 275 kts | 346° |
| 2026-05-07 18:44 | 51.52248 | 12.40070 | 9079 ft | 277 kts | 346° |
| 2026-05-07 18:45 | 51.54124 | 12.39268 | 9927 ft | 281 kts | 346° |
| 2026-05-07 18:45 | 51.55938 | 12.38083 | 10493 ft | 290 kts | 325° |
| 2026-05-07 18:45 | 51.57282 | 12.35565 | 10697 ft | 318 kts | 296° |
| 2026-05-07 18:45 | 51.58052 | 12.32102 | 10888 ft | 340 kts | 288° |
| 2026-05-07 18:46 | 51.58812 | 12.28365 | 11307 ft | 359 kts | 289° |
| 2026-05-07 18:46 | 51.59625 | 12.24516 | 12094 ft | 368 kts | 290° |
| 2026-05-07 18:46 | 51.60576 | 12.20688 | 12920 ft | 369 kts | 301° |
| 2026-05-07 18:46 | 51.62272 | 12.17553 | 13754 ft | 375 kts | 323° |
| 2026-05-07 18:47 | 51.64445 | 12.15316 | 14533 ft | 377 kts | 330° |
| 2026-05-07 18:47 | 51.66706 | 12.13103 | 15356 ft | 383 kts | 329° |
| 2026-05-07 18:47 | 51.68801 | 12.10452 | 15997 ft | 389 kts | 312° |
| 2026-05-07 18:47 | 51.70220 | 12.06683 | 16784 ft | 398 kts | 291° |
| 2026-05-07 18:48 | 51.70841 | 12.02309 | 17694 ft | 403 kts | 275° |
| 2026-05-07 18:48 | 51.70689 | 11.97847 | 18522 ft | 406 kts | 261° |
| 2026-05-07 18:48 | 51.70165 | 11.93322 | 19143 ft | 413 kts | 259° |
| 2026-05-07 18:48 | 51.69579 | 11.88753 | 19905 ft | 416 kts | 259° |
| 2026-05-07 18:49 | 51.69184 | 11.85728 | 20445 ft | 418 kts | 259° |
| 2026-05-07 18:49 | 51.68586 | 11.81118 | 21229 ft | 420 kts | 259° |
| 2026-05-07 18:49 | 51.67806 | 11.74957 | 22227 ft | 425 kts | 260° |
| 2026-05-07 18:49 | 51.67224 | 11.70262 | 22929 ft | 430 kts | 260° |
| 2026-05-07 18:50 | 51.66837 | 11.67113 | 23395 ft | 433 kts | 260° |
| 2026-05-07 18:50 | 51.66256 | 11.62348 | 24122 ft | 434 kts | 259° |
| 2026-05-07 18:50 | 51.65672 | 11.57559 | 24786 ft | 436 kts | 259° |
| 2026-05-07 18:50 | 51.65083 | 11.52737 | 25379 ft | 440 kts | 259° |
| 2026-05-07 18:51 | 51.64488 | 11.47880 | 25953 ft | 444 kts | 259° |
| 2026-05-07 18:51 | 51.63894 | 11.43044 | 26519 ft | 447 kts | 259° |
| 2026-05-07 18:51 | 51.63285 | 11.38107 | 27103 ft | 450 kts | 259° |
| 2026-05-07 18:51 | 51.62670 | 11.33148 | 27679 ft | 454 kts | 259° |
| 2026-05-07 18:52 | 51.62048 | 11.28145 | 28236 ft | 457 kts | 259° |
| 2026-05-07 18:52 | 51.61423 | 11.23142 | 28785 ft | 460 kts | 259° |
| 2026-05-07 18:52 | 51.60784 | 11.18043 | 29317 ft | 464 kts | 259° |
| 2026-05-07 18:52 | 51.60139 | 11.12919 | 29857 ft | 466 kts | 259° |
| 2026-05-07 18:53 | 51.59505 | 11.07894 | 30472 ft | 465 kts | 259° |
| 2026-05-07 18:53 | 51.58859 | 11.02803 | 31083 ft | 463 kts | 259° |
| 2026-05-07 18:53 | 51.58212 | 10.97715 | 31612 ft | 463 kts | 259° |
| 2026-05-07 18:53 | 51.57562 | 10.92628 | 32104 ft | 463 kts | 259° |
| 2026-05-07 18:54 | 51.56912 | 10.87553 | 32596 ft | 463 kts | 259° |
| 2026-05-07 18:54 | 51.56260 | 10.82475 | 33152 ft | 462 kts | 258° |
| 2026-05-07 18:54 | 51.55615 | 10.77471 | 33610 ft | 463 kts | 258° |
| 2026-05-07 18:54 | 51.54961 | 10.72413 | 34097 ft | 463 kts | 258° |
| 2026-05-07 18:55 | 51.54301 | 10.67324 | 34082 ft | 466 kts | 259° |
| 2026-05-07 18:55 | 51.53610 | 10.57014 | 34102 ft | 464 kts | 269° |
| 2026-05-07 18:56 | 51.53477 | 10.46710 | 34109 ft | 464 kts | 269° |
| 2026-05-07 18:56 | 51.53342 | 10.36331 | 34102 ft | 465 kts | 269° |
| 2026-05-07 18:57 | 51.53197 | 10.27160 | 34098 ft | 465 kts | 268° |
| 2026-05-07 18:57 | 51.53039 | 10.18226 | 34096 ft | 465 kts | 268° |
| 2026-05-07 18:58 | 51.52843 | 10.07828 | 34101 ft | 465 kts | 268° |
| 2026-05-07 18:58 | 51.52638 | 9.97445 | 34106 ft | 465 kts | 268° |
| 2026-05-07 18:59 | 51.52426 | 9.87108 | 34100 ft | 464 kts | 268° |
| 2026-05-07 18:59 | 51.52204 | 9.76743 | 34105 ft | 464 kts | 268° |
| 2026-05-07 19:00 | 51.51975 | 9.66446 | 34102 ft | 463 kts | 268° |
| 2026-05-07 19:00 | 51.51840 | 9.60529 | 34107 ft | 463 kts | 268° |
| 2026-05-07 19:01 | 51.51601 | 9.50402 | 34097 ft | 462 kts | 268° |
| 2026-05-07 19:01 | 51.51379 | 9.41313 | 34101 ft | 461 kts | 268° |
| 2026-05-07 19:02 | 51.51120 | 9.31020 | 34104 ft | 461 kts | 268° |
| 2026-05-07 19:02 | 51.50856 | 9.20789 | 34106 ft | 461 kts | 268° |
| 2026-05-07 19:03 | 51.50578 | 9.10482 | 34106 ft | 461 kts | 267° |
| 2026-05-07 19:03 | 51.50215 | 9.00205 | 34098 ft | 461 kts | 266° |
| 2026-05-07 19:04 | 51.49808 | 8.89987 | 34102 ft | 461 kts | 266° |
| 2026-05-07 19:04 | 51.49397 | 8.79686 | 34109 ft | 461 kts | 266° |
| 2026-05-07 19:05 | 51.48988 | 8.69392 | 34108 ft | 461 kts | 266° |
| 2026-05-07 19:05 | 51.48657 | 8.61161 | 34105 ft | 461 kts | 266° |
| 2026-05-07 19:06 | 51.48235 | 8.50882 | 34101 ft | 460 kts | 266° |
| 2026-05-07 19:06 | 51.47589 | 8.35587 | 34099 ft | 458 kts | 266° |
| 2026-05-07 19:07 | 51.47149 | 8.25417 | 34098 ft | 458 kts | 266° |
| 2026-05-07 19:07 | 51.46699 | 8.15222 | 34100 ft | 457 kts | 265° |
| 2026-05-07 19:08 | 51.46242 | 8.05137 | 34090 ft | 457 kts | 265° |
| 2026-05-07 19:08 | 51.45765 | 7.94988 | 34082 ft | 454 kts | 265° |
| 2026-05-07 19:09 | 51.45302 | 7.85075 | 33940 ft | 435 kts | 265° |
| 2026-05-07 19:09 | 51.45065 | 7.80267 | 33788 ft | 428 kts | 263° |
| 2026-05-07 19:09 | 51.44573 | 7.75655 | 33497 ft | 423 kts | 255° |
| 2026-05-07 19:10 | 51.43727 | 7.71143 | 33093 ft | 422 kts | 250° |
| 2026-05-07 19:10 | 51.42624 | 7.66773 | 32717 ft | 420 kts | 244° |
| 2026-05-07 19:10 | 51.41349 | 7.62574 | 32427 ft | 416 kts | 243° |
| 2026-05-07 19:10 | 51.40077 | 7.58417 | 32120 ft | 413 kts | 243° |
| 2026-05-07 19:11 | 51.38820 | 7.54297 | 31780 ft | 411 kts | 244° |
| 2026-05-07 19:11 | 51.37584 | 7.50232 | 31436 ft | 409 kts | 244° |
| 2026-05-07 19:11 | 51.36344 | 7.46138 | 31100 ft | 407 kts | 244° |
| 2026-05-07 19:11 | 51.35111 | 7.42061 | 30786 ft | 405 kts | 244° |
| 2026-05-07 19:12 | 51.33886 | 7.38012 | 30470 ft | 403 kts | 244° |
| 2026-05-07 19:12 | 51.32666 | 7.33978 | 30149 ft | 401 kts | 244° |
| 2026-05-07 19:12 | 51.31453 | 7.29974 | 29789 ft | 399 kts | 244° |
| 2026-05-07 19:12 | 51.30259 | 7.26038 | 29431 ft | 397 kts | 244° |
| 2026-05-07 19:13 | 51.29056 | 7.22081 | 29093 ft | 394 kts | 244° |
| 2026-05-07 19:13 | 51.27859 | 7.18148 | 28757 ft | 392 kts | 244° |
| 2026-05-07 19:13 | 51.26663 | 7.14241 | 28452 ft | 390 kts | 243° |
| 2026-05-07 19:13 | 51.25475 | 7.10375 | 28199 ft | 386 kts | 243° |
| 2026-05-07 19:14 | 51.24292 | 7.06521 | 27895 ft | 384 kts | 243° |
| 2026-05-07 19:14 | 51.23117 | 7.02687 | 27555 ft | 382 kts | 243° |
| 2026-05-07 19:14 | 51.21963 | 6.98924 | 27214 ft | 381 kts | 243° |
| 2026-05-07 19:14 | 51.20799 | 6.95130 | 26906 ft | 380 kts | 243° |
| 2026-05-07 19:15 | 51.19640 | 6.91356 | 26607 ft | 378 kts | 243° |
| 2026-05-07 19:15 | 51.18481 | 6.87591 | 26311 ft | 376 kts | 243° |
| 2026-05-07 19:15 | 51.17325 | 6.83841 | 26018 ft | 375 kts | 243° |
| 2026-05-07 19:15 | 51.16188 | 6.80158 | 25732 ft | 373 kts | 243° |
| 2026-05-07 19:16 | 51.15042 | 6.76447 | 25443 ft | 372 kts | 243° |